Time,TemperatureF,DewpointF,PressureIn,WindDirection,WindDirectionDegrees,WindSpeedMPH,WindSpeedGustMPH,Humidity,HourlyPrecipIn,Conditions,Clouds,dailyrainin,SoftwareType,DateUTC
2013-08-18 00:12:00,61.7,61.1,30.19,West,270,0.0,-999.0,98,-99.99,,,0.00,Acu-Link.com,2013-08-18 04:12:00,
2013-08-18 00:27:00,61.5,60.9,30.18,WNW,292,0.0,-999.0,98,-99.99,,,0.00,Acu-Link.com,2013-08-18 04:27:00,
2013-08-18 00:42:00,61.3,60.7,30.18,WNW,292,0.0,-999.0,98,-99.99,,,0.00,Acu-Link.com,2013-08-18 04:42:00,
2013-08-18 00:58:00,61.2,60.6,30.18,West,270,0.0,-999.0,98,-99.99,,,0.00,Acu-Link.com,2013-08-18 04:58:00,
2013-08-18 01:13:00,60.8,60.2,30.18,West,270,0.0,-999.0,98,-99.99,,,0.00,Acu-Link.com,2013-08-18 05:13:00,
2013-08-18 01:28:00,60.3,59.7,30.17,WNW,292,0.0,-999.0,98,-99.99,,,0.00,Acu-Link.com,2013-08-18 05:28:00,
2013-08-18 01:43:00,60.1,59.5,30.18,West,270,0.0,-999.0,98,-99.99,,,0.00,Acu-Link.com,2013-08-18 05:43:00,
2013-08-18 01:58:00,59.9,59.3,30.18,West,270,0.0,-999.0,98,-99.99,,,0.00,Acu-Link.com,2013-08-18 05:58:00,
2013-08-18 02:13:00,60.1,59.5,30.18,West,270,0.0,-999.0,98,-99.99,,,0.00,Acu-Link.com,2013-08-18 06:13:00,
2013-08-18 02:28:00,59.7,59.1,30.17,West,270,0.0,-999.0,98,-99.99,,,0.00,Acu-Link.com,2013-08-18 06:28:00,
2013-08-18 02:43:00,59.4,58.8,30.17,WNW,292,0.0,-999.0,98,-99.99,,,0.00,Acu-Link.com,2013-08-18 06:43:00,
2013-08-18 02:58:00,59.2,58.6,30.17,West,270,0.0,-999.0,98,-99.99,,,0.00,Acu-Link.com,2013-08-18 06:58:00,
2013-08-18 03:14:00,59.2,58.6,30.18,West,270,0.0,-999.0,98,-99.99,,,0.00,Acu-Link.com,2013-08-18 07:14:00,
2013-08-18 03:29:00,59.2,58.6,30.17,WSW,247,0.0,-999.0,98,-99.99,,,0.00,Acu-Link.com,2013-08-18 07:29:00,
2013-08-18 03:44:00,59.0,58.4,30.18,SSW,202,0.0,-999.0,98,-99.99,,,0.00,Acu-Link.com,2013-08-18 07:44:00,
2013-08-18 03:59:00,58.8,58.2,30.18,WNW,292,0.0,-999.0,98,-99.99,,,0.00,Acu-Link.com,2013-08-18 07:59:00,
2013-08-18 04:15:00,58.6,58.0,30.18,WNW,292,0.0,-999.0,98,-99.99,,,0.00,Acu-Link.com,2013-08-18 08:15:00,
2013-08-18 04:30:00,58.5,57.9,30.17,West,270,0.0,-999.0,98,-99.99,,,0.00,Acu-Link.com,2013-08-18 08:30:00,
2013-08-18 04:45:00,58.5,57.9,30.17,West,270,0.0,-999.0,98,-99.99,,,0.00,Acu-Link.com,2013-08-18 08:45:00,
2013-08-18 05:00:00,58.1,57.5,30.17,WNW,292,0.0,-999.0,98,-99.99,,,0.00,Acu-Link.com,2013-08-18 09:00:00,
2013-08-18 05:15:00,57.7,57.1,30.17,SSE,157,0.0,-999.0,98,-99.99,,,0.00,Acu-Link.com,2013-08-18 09:15:00,
2013-08-18 05:30:00,57.6,57.0,30.17,West,270,0.0,-999.0,98,-99.99,,,0.00,Acu-Link.com,2013-08-18 09:30:00,
2013-08-18 05:46:00,57.6,57.0,30.18,West,270,0.0,-999.0,98,-99.99,,,0.00,Acu-Link.com,2013-08-18 09:46:00,
2013-08-18 06:01:00,57.6,57.0,30.18,ESE,112,0.0,-999.0,98,-99.99,,,0.00,Acu-Link.com,2013-08-18 10:01:00,
2013-08-18 06:16:00,57.7,57.1,30.17,West,270,0.0,-999.0,98,-99.99,,,0.00,Acu-Link.com,2013-08-18 10:16:00,
2013-08-18 06:31:00,58.3,57.7,30.19,West,270,0.0,-999.0,98,-99.99,,,0.00,Acu-Link.com,2013-08-18 10:31:00,
2013-08-18 06:46:00,59.2,58.6,30.18,ESE,112,0.0,-999.0,98,-99.99,,,0.00,Acu-Link.com,2013-08-18 10:46:00,
2013-08-18 07:01:00,59.5,58.9,30.18,ENE,67,0.0,-999.0,98,-99.99,,,0.00,Acu-Link.com,2013-08-18 11:01:00,
2013-08-18 07:16:00,59.7,59.1,30.19,ENE,67,0.0,-999.0,98,-99.99,,,0.00,Acu-Link.com,2013-08-18 11:16:00,
2013-08-18 07:31:00,60.6,60.0,30.20,West,270,0.0,-999.0,98,-99.99,,,0.00,Acu-Link.com,2013-08-18 11:31:00,
2013-08-18 07:46:00,61.5,60.9,30.20,ESE,112,0.0,-999.0,98,-99.99,,,0.00,Acu-Link.com,2013-08-18 11:46:00,
2013-08-18 08:02:00,62.2,61.6,30.20,ESE,112,0.0,-999.0,98,-99.99,,,0.00,Acu-Link.com,2013-08-18 12:02:00,
2013-08-18 08:17:00,63.3,62.7,30.19,ESE,112,0.0,-999.0,98,-99.99,,,0.00,Acu-Link.com,2013-08-18 12:17:00,
2013-08-18 08:32:00,64.2,63.6,30.20,ESE,112,2.2,-999.0,98,-99.99,,,0.00,Acu-Link.com,2013-08-18 12:32:00,
2013-08-18 08:47:00,65.3,64.7,30.19,SSE,157,1.1,-999.0,98,-99.99,,,0.00,Acu-Link.com,2013-08-18 12:47:00,
2013-08-18 09:02:00,66.4,65.8,30.19,ESE,112,2.7,-999.0,98,-99.99,,,0.00,Acu-Link.com,2013-08-18 13:02:00,
2013-08-18 09:17:00,68.7,68.1,30.19,ESE,112,2.7,-999.0,98,-99.99,,,0.00,Acu-Link.com,2013-08-18 13:17:00,
2013-08-18 09:32:00,70.2,69.6,30.19,NNE,22,1.7,-999.0,98,-99.99,,,0.00,Acu-Link.com,2013-08-18 13:32:00,
2013-08-18 09:47:00,69.3,68.7,30.19,ESE,112,2.7,-999.0,98,-99.99,,,0.00,Acu-Link.com,2013-08-18 13:47:00,
2013-08-18 10:02:00,71.1,70.5,30.19,SSE,157,3.7,-999.0,98,-99.99,,,0.00,Acu-Link.com,2013-08-18 14:02:00,
2013-08-18 10:17:00,71.8,71.2,30.18,SE,135,3.7,-999.0,98,-99.99,,,0.00,Acu-Link.com,2013-08-18 14:17:00,
2013-08-18 10:33:00,74.1,73.5,30.18,ESE,112,3.2,-999.0,98,-99.99,,,0.00,Acu-Link.com,2013-08-18 14:33:00,
2013-08-18 10:48:00,73.8,73.2,30.19,SE,135,4.2,-999.0,98,-99.99,,,0.00,Acu-Link.com,2013-08-18 14:48:00,
2013-08-18 11:03:00,73.0,72.4,30.18,SSE,157,3.2,-999.0,98,-99.99,,,0.00,Acu-Link.com,2013-08-18 15:03:00,
2013-08-18 11:18:00,76.3,75.7,30.18,West,270,1.1,-999.0,98,-99.99,,,0.00,Acu-Link.com,2013-08-18 15:18:00,
2013-08-18 11:33:00,74.3,73.7,30.18,WNW,292,0.0,-999.0,98,-99.99,,,0.00,Acu-Link.com,2013-08-18 15:33:00,
2013-08-18 11:48:00,75.6,75.0,30.18,SSE,157,4.7,-999.0,98,-99.99,,,0.00,Acu-Link.com,2013-08-18 15:48:00,
2013-08-18 12:03:00,75.9,75.3,30.17,East,90,2.7,-999.0,98,-99.99,,,0.00,Acu-Link.com,2013-08-18 16:03:00,
2013-08-18 12:18:00,75.4,74.8,30.17,ESE,112,1.1,-999.0,98,-99.99,,,0.00,Acu-Link.com,2013-08-18 16:18:00,
2013-08-18 12:33:00,75.2,74.6,30.16,ESE,112,4.2,-999.0,98,-99.99,,,0.00,Acu-Link.com,2013-08-18 16:33:00,
2013-08-18 12:49:00,74.5,73.9,30.16,NNW,337,0.0,-999.0,98,-99.99,,,0.00,Acu-Link.com,2013-08-18 16:49:00,
2013-08-18 13:04:00,74.1,73.5,30.16,SE,135,1.7,-999.0,98,-99.99,,,0.00,Acu-Link.com,2013-08-18 17:04:00,
2013-08-18 13:19:00,74.5,73.9,30.15,SE,135,3.7,-999.0,98,-99.99,,,0.00,Acu-Link.com,2013-08-18 17:19:00,
2013-08-18 13:34:00,74.1,73.5,30.15,ESE,112,4.2,-999.0,98,-99.99,,,0.00,Acu-Link.com,2013-08-18 17:34:00,
2013-08-18 13:49:00,75.2,74.6,30.14,SE,135,2.7,-999.0,98,-99.99,,,0.00,Acu-Link.com,2013-08-18 17:49:00,
2013-08-18 14:04:00,74.5,73.9,30.14,SE,135,2.2,-999.0,98,-99.99,,,0.00,Acu-Link.com,2013-08-18 18:04:00,
2013-08-18 14:19:00,74.5,73.9,30.13,ESE,112,0.0,-999.0,98,-99.99,,,0.00,Acu-Link.com,2013-08-18 18:19:00,
2013-08-18 14:34:00,73.9,73.3,30.13,SSE,157,2.2,-999.0,98,-99.99,,,0.00,Acu-Link.com,2013-08-18 18:34:00,
2013-08-18 14:49:00,74.3,73.7,30.11,ESE,112,2.7,-999.0,98,-99.99,,,0.00,Acu-Link.com,2013-08-18 18:49:00,
2013-08-18 15:05:00,74.8,74.2,30.11,SE,135,2.2,-999.0,98,-99.99,,,0.00,Acu-Link.com,2013-08-18 19:05:00,
2013-08-18 15:20:00,75.2,74.6,30.10,NE,45,0.0,-999.0,98,-99.99,,,0.00,Acu-Link.com,2013-08-18 19:20:00,
2013-08-18 15:35:00,74.8,71.7,30.09,ESE,112,0.0,-999.0,90,-99.99,,,0.00,Acu-Link.com,2013-08-18 19:35:00,
2013-08-18 15:50:00,75.0,71.9,30.09,North,0,0.0,-999.0,90,-99.99,,,0.00,Acu-Link.com,2013-08-18 19:50:00,
2013-08-18 16:05:00,76.1,75.2,30.09,NW,315,0.0,-999.0,97,-99.99,,,0.00,Acu-Link.com,2013-08-18 20:05:00,
2013-08-18 16:20:00,75.6,75.0,30.07,North,0,0.0,-999.0,98,-99.99,,,0.00,Acu-Link.com,2013-08-18 20:20:00,
2013-08-18 16:35:00,75.2,74.6,30.08,West,270,0.0,-999.0,98,-99.99,,,0.00,Acu-Link.com,2013-08-18 20:35:00,
2013-08-18 16:50:00,74.3,73.7,30.07,ESE,112,0.0,-999.0,98,-99.99,,,0.00,Acu-Link.com,2013-08-18 20:50:00,
2013-08-18 17:05:00,73.9,73.3,30.07,WNW,292,0.0,-999.0,98,-99.99,,,0.00,Acu-Link.com,2013-08-18 21:05:00,
2013-08-18 17:21:00,74.1,73.5,30.07,WNW,292,0.0,-999.0,98,-99.99,,,0.00,Acu-Link.com,2013-08-18 21:21:00,
2013-08-18 17:36:00,74.3,73.7,30.06,SE,135,0.0,-999.0,98,-99.99,,,0.00,Acu-Link.com,2013-08-18 21:36:00,
2013-08-18 17:51:00,73.0,72.4,30.06,SW,225,1.1,-999.0,98,-99.99,,,0.00,Acu-Link.com,2013-08-18 21:51:00,
2013-08-18 18:06:00,72.5,71.9,30.06,SW,225,0.0,-999.0,98,-99.99,,,0.00,Acu-Link.com,2013-08-18 22:06:00,
2013-08-18 18:21:00,72.1,71.5,30.05,NW,315,0.0,-999.0,98,-99.99,,,0.00,Acu-Link.com,2013-08-18 22:21:00,
2013-08-18 18:36:00,71.8,71.2,30.06,WNW,292,0.0,-999.0,98,-99.99,,,0.00,Acu-Link.com,2013-08-18 22:36:00,
2013-08-18 18:51:00,70.9,70.3,30.05,West,270,0.0,-999.0,98,-99.99,,,0.00,Acu-Link.com,2013-08-18 22:51:00,
2013-08-18 19:06:00,70.2,69.6,30.06,West,270,0.0,-999.0,98,-99.99,,,0.00,Acu-Link.com,2013-08-18 23:06:00,
2013-08-18 19:21:00,69.6,69.0,30.06,West,270,0.0,-999.0,98,-99.99,,,0.00,Acu-Link.com,2013-08-18 23:21:00,
2013-08-18 19:37:00,68.7,68.1,30.06,West,270,0.0,-999.0,98,-99.99,,,0.00,Acu-Link.com,2013-08-18 23:37:00,
2013-08-18 19:52:00,68.0,67.4,30.06,West,270,0.0,-999.0,98,-99.99,,,0.00,Acu-Link.com,2013-08-18 23:52:00,
2013-08-18 20:07:00,67.3,66.7,30.06,West,270,0.0,-999.0,98,-99.99,,,0.00,Acu-Link.com,2013-08-19 00:07:00,
2013-08-18 20:22:00,66.6,66.0,30.05,West,270,0.0,-999.0,98,-99.99,,,0.00,Acu-Link.com,2013-08-19 00:22:00,
2013-08-18 20:37:00,66.0,65.4,30.06,West,270,0.0,-999.0,98,-99.99,,,0.00,Acu-Link.com,2013-08-19 00:37:00,
2013-08-18 20:52:00,65.5,64.9,30.06,West,270,0.0,-999.0,98,-99.99,,,0.00,Acu-Link.com,2013-08-19 00:52:00,
2013-08-18 21:07:00,65.1,64.5,30.06,West,270,0.0,-999.0,98,-99.99,,,0.00,Acu-Link.com,2013-08-19 01:07:00,
2013-08-18 21:22:00,64.4,63.8,30.05,West,270,0.0,-999.0,98,-99.99,,,0.00,Acu-Link.com,2013-08-19 01:22:00,
2013-08-18 21:37:00,63.9,63.3,30.05,WNW,292,0.0,-999.0,98,-99.99,,,0.00,Acu-Link.com,2013-08-19 01:37:00,
2013-08-18 21:52:00,63.7,63.1,30.05,West,270,0.0,-999.0,98,-99.99,,,0.00,Acu-Link.com,2013-08-19 01:52:00,
2013-08-18 22:08:00,63.5,62.9,30.05,West,270,0.0,-999.0,98,-99.99,,,0.00,Acu-Link.com,2013-08-19 02:08:00,
2013-08-18 22:23:00,63.1,62.5,30.04,West,270,0.0,-999.0,98,-99.99,,,0.00,Acu-Link.com,2013-08-19 02:23:00,
2013-08-18 22:38:00,62.6,62.0,30.05,West,270,0.0,-999.0,98,-99.99,,,0.00,Acu-Link.com,2013-08-19 02:38:00,
2013-08-18 22:53:00,62.4,61.8,30.05,West,270,0.0,-999.0,98,-99.99,,,0.00,Acu-Link.com,2013-08-19 02:53:00,
2013-08-18 23:08:00,62.2,61.6,30.05,West,270,0.0,-999.0,98,-99.99,,,0.00,Acu-Link.com,2013-08-19 03:08:00,
2013-08-18 23:23:00,61.9,61.3,30.04,West,270,0.0,-999.0,98,-99.99,,,0.00,Acu-Link.com,2013-08-19 03:23:00,
2013-08-18 23:39:00,61.7,61.1,30.04,West,270,0.0,-999.0,98,-99.99,,,0.00,Acu-Link.com,2013-08-19 03:39:00,
2013-08-18 23:54:00,61.3,60.7,30.04,West,270,1.7,-999.0,98,-99.99,,,0.00,Acu-Link.com,2013-08-19 03:54:00,